Terminal Aerodrome Forecast
Issued by NWS

Home | Current Version | Previous Version | Text Only | Print | Product List | Glossary On
Versions: 1 2 3 4 5 6 7 8 9 10 11 12 13 14 15 16 17 18
000
FTUS41 KPBZ 232300
TAFBVI
TAF
KBVI 232326Z 2400/2424 33006KT P6SM BKN015
      TEMPO 2400/2403 5SM BR BKN010
     FM240800 34006KT 4SM BR BKN010
     FM241400 36008KT P6SM SCT035
      AMD NOT SKED 2401/2411=

USA.gov is the U.S. government's official web portal to all federal, state and local government web resources and services.